Time;durP1;ratioP1;P1;durP2;ratioP2;P2;SDS_P1;SDS_P2;PMS_P1;PMS_P2;Temp;Humidity;BMP_temperature;BMP_pressure;BME280_temperature;BME280_humidity;BME280_pressure;Samples;Min_cycle;Max_cycle;Signal;HPM_P1;HPM_P2
2022/03/11 05:22:34;;;;;;;12.02;7.18;;;;;;;3.23;55.44;100528.22;5150344;27;20176;-70
2022/03/11 05:25:00;;;;;;;11.20;7.00;;;;;;;3.18;55.23;100527.75;5150745;27;20035;-70
2022/03/11 05:27:26;;;;;;;13.95;7.53;;;;;;;3.19;55.45;100528.56;5170338;27;20030;-71
2022/03/11 05:29:52;;;;;;;12.02;7.63;;;;;;;3.18;55.61;100530.38;5171178;27;20049;-71
2022/03/11 05:32:20;;;;;;;13.30;7.38;;;;;;;3.17;55.41;100533.13;5171329;27;20062;-70
2022/03/11 05:34:46;;;;;;;9.73;6.72;;;;;;;3.09;55.75;100532.88;5171237;27;20039;-70
2022/03/11 05:37:12;;;;;;;12.75;7.97;;;;;;;3.12;55.54;100538.75;5171031;27;20038;-70
2022/03/11 05:39:38;;;;;;;11.85;7.43;;;;;;;3.07;55.33;100533.03;5171080;27;20037;-71
2022/03/11 05:42:04;;;;;;;11.85;7.63;;;;;;;3.08;55.50;100539.13;5170589;27;20403;-72
2022/03/11 05:44:30;;;;;;;11.02;8.20;;;;;;;3.08;55.55;100539.94;5171007;27;20034;-70
2022/03/11 05:46:58;;;;;;;12.32;7.95;;;;;;;3.05;55.86;100544.59;5152034;27;20034;-71
2022/03/11 05:49:23;;;;;;;10.93;7.28;;;;;;;2.99;56.15;100557.25;5152309;27;20121;-71
2022/03/11 05:51:49;;;;;;;11.88;7.63;;;;;;;3.02;56.20;100555.38;5170601;27;20387;-71
2022/03/11 05:54:15;;;;;;;15.93;7.82;;;;;;;2.95;56.11;100553.22;5152194;27;20176;-70
2022/03/11 05:56:41;;;;;;;11.93;7.47;;;;;;;3.01;55.80;100561.59;5152095;27;20412;-71
2022/03/11 05:59:08;;;;;;;11.55;8.43;;;;;;;2.99;56.14;100551.16;5170597;27;20056;-71
2022/03/11 06:01:35;;;;;;;13.13;8.43;;;;;;;2.99;55.87;100562.53;5170370;27;20088;-71
2022/03/11 06:04:03;;;;;;;10.35;7.70;;;;;;;3.02;55.58;100548.31;5170484;27;20161;-71
2022/03/11 06:06:30;;;;;;;11.48;7.03;;;;;;;2.99;55.77;100559.91;5170593;27;20093;-70
2022/03/11 06:08:56;;;;;;;13.93;8.73;;;;;;;2.97;56.01;100558.34;5170626;27;20125;-71
2022/03/11 06:11:22;;;;;;;12.70;7.82;;;;;;;2.84;56.96;100558.44;5170337;27;20106;-71
2022/03/11 06:13:47;;;;;;;16.50;7.38;;;;;;;2.94;56.47;100566.50;5170740;27;20522;-70
2022/03/11 06:16:13;;;;;;;12.40;7.45;;;;;;;2.96;56.06;100551.41;5152460;27;20038;-70
2022/03/11 06:18:39;;;;;;;12.57;8.43;;;;;;;3.12;55.56;100556.34;5170689;27;20034;-70
2022/03/11 06:21:05;;;;;;;11.23;7.90;;;;;;;3.12;55.46;100553.69;5151381;27;20043;-69
2022/03/11 06:23:31;;;;;;;12.48;7.80;;;;;;;3.16;55.54;100557.78;5169649;27;20045;-69
2022/03/11 06:25:58;;;;;;;14.07;8.98;;;;;;;3.26;55.41;100558.75;5170064;27;20041;-69
2022/03/11 06:28:23;;;;;;;13.05;8.93;;;;;;;3.37;54.93;100553.47;5170126;27;20042;-69
2022/03/11 06:30:49;;;;;;;10.25;7.90;;;;;;;3.47;54.99;100562.34;5170169;27;20142;-69
2022/03/11 06:33:15;;;;;;;10.13;7.07;;;;;;;3.56;54.19;100563.41;5159809;27;20487;-68
2022/03/11 06:35:41;;;;;;;14.57;7.65;;;;;;;3.62;54.14;100565.56;5156117;27;20066;-69
2022/03/11 06:38:07;;;;;;;11.27;7.95;;;;;;;3.72;54.21;100552.53;5137524;27;20114;-68
2022/03/11 06:40:33;;;;;;;10.88;7.43;;;;;;;3.74;53.47;100547.97;5155899;27;20106;-69
2022/03/11 06:42:58;;;;;;;11.52;8.18;;;;;;;3.96;52.37;100547.91;5155475;27;20443;-69
2022/03/11 06:45:24;;;;;;;9.98;7.22;;;;;;;4.04;53.05;100545.50;5137231;27;20038;-70
2022/03/11 06:47:52;;;;;;;14.00;8.30;;;;;;;4.15;52.79;100544.63;5156060;27;20081;-69
2022/03/11 06:50:18;;;;;;;12.13;7.93;;;;;;;4.24;52.10;100550.97;5155860;27;20507;-70
2022/03/11 06:52:45;;;;;;;10.65;7.30;;;;;;;4.35;52.07;100550.91;5155522;27;20027;-70
2022/03/11 06:55:14;;;;;;;11.45;7.40;;;;;;;4.38;51.58;100553.31;5155622;27;20019;-70
2022/03/11 06:57:40;;;;;;;10.98;7.28;;;;;;;4.39;51.83;100560.25;5155701;27;20544;-70
2022/03/11 07:00:08;;;;;;;10.55;7.32;;;;;;;4.44;52.07;100565.16;5155696;27;20030;-70
2022/03/11 07:02:36;;;;;;;10.93;7.13;;;;;;;4.58;51.02;100567.50;5155329;27;20506;-70
2022/03/11 07:05:02;;;;;;;;;;;;;;;4.67;51.12;100557.97;5156004;27;20109;-72
2022/03/11 07:07:29;;;;;;;16.15;8.20;;;;;;;4.94;50.26;100566.22;5155463;27;20333;-71
2022/03/11 07:09:55;;;;;;;12.95;7.70;;;;;;;5.09;49.82;100564.94;5155600;27;20084;-71
2022/03/11 07:12:20;;;;;;;10.95;7.35;;;;;;;5.28;50.66;100560.69;5155209;27;20590;-71
2022/03/11 07:14:48;;;;;;;14.90;8.23;;;;;;;5.26;48.99;100557.34;5155315;27;20090;-70
2022/03/11 07:17:14;;;;;;;14.05;7.97;;;;;;;5.24;49.84;100561.94;5155435;27;20030;-71
2022/03/11 07:19:40;;;;;;;11.38;8.15;;;;;;;5.45;48.83;100570.66;5155308;27;20395;-71
2022/03/11 07:22:06;;;;;;;12.63;8.32;;;;;;;5.39;49.32;100571.19;5154820;27;20035;-70
2022/03/11 07:24:32;;;;;;;16.17;8.68;;;;;;;5.47;48.91;100575.81;5155021;27;20513;-72
2022/03/11 07:26:59;;;;;;;11.75;7.47;;;;;;;5.50;48.71;100560.53;5155067;27;20031;-70
2022/03/11 07:29:24;;;;;;;11.95;8.05;;;;;;;5.66;48.23;100571.44;5155039;27;20053;-70
2022/03/11 07:31:50;;;;;;;12.45;8.32;;;;;;;5.70;48.21;100567.56;5136048;27;20031;-70
2022/03/11 07:34:16;;;;;;;12.40;8.15;;;;;;;5.77;48.23;100573.16;5155059;27;20095;-71
2022/03/11 07:36:42;;;;;;;11.70;7.93;;;;;;;5.92;48.09;100576.28;5154972;27;20395;-71
2022/03/11 07:39:10;;;;;;;13.80;7.78;;;;;;;6.01;47.03;100578.13;5154798;27;20094;-71
2022/03/11 07:41:36;;;;;;;11.52;8.15;;;;;;;5.94;47.52;100577.84;5154576;27;20125;-71
2022/03/11 07:44:03;;;;;;;12.30;7.80;;;;;;;6.20;46.75;100574.69;5153610;27;20073;-71
2022/03/11 07:46:31;;;;;;;12.88;7.75;;;;;;;6.21;47.51;100571.06;5154546;27;20114;-71
2022/03/11 07:48:57;;;;;;;12.75;8.27;;;;;;;6.43;46.43;100557.56;5154673;27;20546;-71
2022/03/11 07:51:25;;;;;;;11.25;7.93;;;;;;;6.55;46.10;100566.22;5154598;27;20117;-71
2022/03/11 07:53:51;;;;;;;14.07;8.27;;;;;;;6.52;45.94;100561.22;5154432;27;20168;-71
2022/03/11 07:56:16;;;;;;;12.95;8.18;;;;;;;6.75;46.39;100562.56;5118765;27;20042;-71
2022/03/11 07:58:42;;;;;;;9.93;7.13;;;;;;;6.69;45.94;100562.31;5154579;27;20074;-72
2022/03/11 08:01:10;;;;;;;9.23;6.78;;;;;;;6.74;45.74;100565.38;5154519;27;20027;-71
2022/03/11 08:03:37;;;;;;;;;;;;;;;6.77;45.86;100565.06;5154607;27;20114;-70
2022/03/11 08:06:04;;;;;;;12.77;9.75;;;;;;;6.96;44.93;100569.50;5154373;27;19922;-69
2022/03/11 08:08:30;;;;;;;11.40;7.85;;;;;;;6.95;45.38;100565.19;5154130;27;20554;-72
2022/03/11 08:10:56;;;;;;;12.07;8.05;;;;;;;7.17;44.21;100570.19;5135624;27;20050;-71
2022/03/11 08:13:22;;;;;;;11.68;8.48;;;;;;;7.21;44.49;100568.06;5153828;27;20419;-70
2022/03/11 08:15:48;;;;;;;11.52;7.93;;;;;;;7.04;46.07;100565.19;5154011;27;20031;-71
2022/03/11 08:18:14;;;;;;;10.23;6.75;;;;;;;7.38;44.35;100563.84;5154144;27;20034;-71
2022/03/11 08:20:40;;;;;;;13.13;8.55;;;;;;;7.52;44.32;100560.72;5153777;27;20027;-71
2022/03/11 08:23:07;;;;;;;11.00;7.50;;;;;;;7.65;44.14;100557.72;5135222;27;20098;-70
2022/03/11 08:25:34;;;;;;;14.23;8.38;;;;;;;7.70;43.58;100555.47;5154088;27;20054;-71
2022/03/11 08:27:59;;;;;;;12.32;7.85;;;;;;;7.64;44.11;100545.47;5153909;27;20394;-72
2022/03/11 08:30:27;;;;;;;12.55;8.02;;;;;;;7.77;43.52;100544.13;5153782;27;20062;-72
2022/03/11 08:32:53;;;;;;;13.50;8.10;;;;;;;7.91;43.97;100544.63;5153670;27;20131;-71
2022/03/11 08:35:19;;;;;;;10.93;8.05;;;;;;;8.12;43.03;100545.16;5153661;27;20038;-71
2022/03/11 08:37:46;;;;;;;12.27;8.05;;;;;;;8.05;42.55;100549.41;5153801;27;20035;-71
2022/03/11 08:40:13;;;;;;;13.60;8.55;;;;;;;8.00;43.76;100533.09;5153941;27;20095;-71
2022/03/11 08:42:40;;;;;;;10.07;7.67;;;;;;;8.27;42.69;100535.69;5153438;27;20039;-72
2022/03/11 08:45:07;;;;;;;14.15;8.15;;;;;;;8.24;43.18;100540.47;5153576;27;20027;-71
2022/03/11 08:47:33;;;;;;;12.18;7.70;;;;;;;8.51;41.90;100537.78;5153459;27;20087;-71
2022/03/11 08:49:58;;;;;;;11.52;8.07;;;;;;;8.22;42.67;100524.72;5153438;27;20436;-72
2022/03/11 08:52:28;;;;;;;11.70;8.20;;;;;;;8.66;41.18;100536.22;5100461;27;20586;-72
2022/03/11 08:54:54;;;;;;;10.52;8.13;;;;;;;8.72;40.96;100529.47;5134923;27;20060;-72
2022/03/11 08:57:21;;;;;;;13.70;8.38;;;;;;;8.80;40.81;100536.66;5153248;27;20082;-70
2022/03/11 08:59:46;;;;;;;12.13;8.13;;;;;;;9.08;40.43;100516.13;5153387;27;20460;-71
2022/03/11 09:02:15;;;;;;;13.18;7.90;;;;;;;9.05;40.16;100519.06;5152991;27;20035;-72
2022/03/11 09:04:41;;;;;;;14.50;8.88;;;;;;;8.68;41.31;100523.66;5153433;27;20026;-72
2022/03/11 09:07:07;;;;;;;13.40;8.85;;;;;;;9.20;39.75;100520.19;5153268;27;20031;-72
2022/03/11 09:09:34;;;;;;;13.23;7.97;;;;;;;9.14;40.03;100521.66;5153422;27;20034;-71
2022/03/11 09:12:00;;;;;;;11.65;8.13;;;;;;;9.40;39.33;100523.44;5153135;27;20034;-70
2022/03/11 09:14:26;;;;;;;12.05;8.13;;;;;;;9.47;39.29;100530.63;5153355;27;20055;-71
2022/03/11 09:16:52;;;;;;;11.75;7.97;;;;;;;9.56;39.07;100534.16;5153088;27;20034;-71
2022/03/11 09:19:17;;;;;;;13.07;8.23;;;;;;;9.80;38.76;100525.44;5153062;27;20455;-72
2022/03/11 09:21:43;;;;;;;14.13;8.05;;;;;;;9.86;38.23;100518.63;5134196;27;20491;-71
2022/03/11 09:24:09;;;;;;;11.57;8.07;;;;;;;10.04;39.06;100527.31;5134627;27;20621;-70
2022/03/11 09:26:35;;;;;;;12.00;8.27;;;;;;;10.07;37.68;100530.50;5117511;27;20042;-71
2022/03/11 09:33:17;;;;;;;;;;;;;;;10.03;38.57;100528.31;5153552;27;20506;-71
2022/03/11 09:35:46;;;;;;;12.35;8.23;;;;;;;10.35;37.13;100532.06;5134473;27;20351;-71
2022/03/11 09:38:12;;;;;;;12.85;6.85;;;;;;;10.44;36.94;100529.25;5153030;27;20066;-72
2022/03/11 09:40:42;;;;;;;10.95;8.02;;;;;;;10.48;38.17;100527.91;5153035;27;20071;-71
2022/03/11 09:43:10;;;;;;;11.85;7.85;;;;;;;10.99;37.91;100527.72;5152701;27;20045;-72
2022/03/11 09:45:36;;;;;;;11.43;7.65;;;;;;;10.91;37.24;100523.25;5153214;27;20031;-71
2022/03/11 09:48:02;;;;;;;12.07;8.63;;;;;;;11.33;36.40;100517.63;5153102;27;20117;-72
2022/03/11 09:50:29;;;;;;;13.70;8.23;;;;;;;11.51;35.37;100517.41;5152652;27;20074;-70
2022/03/11 09:52:55;;;;;;;11.60;7.32;;;;;;;11.58;35.78;100517.56;5134077;27;20031;-72
2022/03/11 09:55:21;;;;;;;12.15;8.50;;;;;;;11.98;34.45;100513.88;5134348;27;20074;-72
2022/03/11 09:57:47;;;;;;;11.10;7.05;;;;;;;12.02;34.29;100511.72;5134720;27;20034;-70
2022/03/11 10:00:13;;;;;;;12.57;8.10;;;;;;;12.63;33.53;100515.25;5152887;27;20117;-71
2022/03/11 10:02:45;;;;;;;11.50;8.05;;;;;;;12.69;34.69;100511.88;5152521;27;20035;-71
2022/03/11 10:05:12;;;;;;;13.50;8.57;;;;;;;12.99;32.53;100510.09;5152776;27;20034;-70
2022/03/11 10:07:38;;;;;;;11.10;8.05;;;;;;;13.65;31.57;100508.38;5135384;27;20068;-71
2022/03/11 10:10:15;;;;;;;11.48;8.30;;;;;;;13.38;31.48;100501.03;5156837;27;20503;-70
2022/03/11 10:12:43;;;;;;;9.85;7.93;;;;;;;14.13;30.97;100501.50;5156498;27;20063;-70
2022/03/11 10:15:09;;;;;;;13.15;8.60;;;;;;;13.95;31.75;100505.63;5138119;27;20034;-70
2022/03/11 10:17:43;;;;;;;11.30;7.85;;;;;;;13.77;31.10;100500.69;5156579;27;20057;-71
2022/03/11 10:20:14;;;;;;;12.07;7.75;;;;;;;14.43;30.61;100506.75;5156408;27;20039;-71
2022/03/11 10:22:42;;;;;;;13.43;8.50;;;;;;;14.28;29.69;100504.16;5156272;27;20035;-71
2022/03/11 10:25:24;;;;;;;;;;;;;;;15.06;29.23;100504.19;5156909;27;20471;-69
2022/03/11 10:28:04;;;;;;;11.07;8.02;;;;;;;15.76;27.94;100491.56;5156374;27;20007;-70
2022/03/11 10:30:34;;;;;;;11.45;7.63;;;;;;;15.46;28.31;100491.84;5156263;27;20030;-69
2022/03/11 10:33:03;;;;;;;11.98;7.85;;;;;;;15.63;27.47;100484.28;5156127;27;20062;-69
2022/03/11 10:35:34;;;;;;;10.60;7.90;;;;;;;15.30;29.67;100484.09;5156139;27;20043;-70
2022/03/11 10:38:03;;;;;;;12.00;7.40;;;;;;;15.44;27.87;100489.34;5137692;27;20480;-69
2022/03/11 10:40:31;;;;;;;9.80;8.02;;;;;;;15.95;27.45;100485.44;5120323;27;20510;-70
2022/03/11 10:43:14;;;;;;;9.98;7.55;;;;;;;16.55;26.87;100489.03;5156058;27;20365;-70
2022/03/11 10:45:50;;;;;;;10.63;7.78;;;;;;;16.76;26.36;100490.75;5156027;27;20121;-70
2022/03/11 10:48:16;;;;;;;10.27;7.70;;;;;;;17.20;26.66;100478.47;5155876;27;20058;-71
2022/03/11 10:50:42;;;;;;;11.82;7.93;;;;;;;16.90;25.91;100478.13;5137373;27;20034;-70
2022/03/11 10:57:06;;;;;;;10.45;7.70;;;;;;;17.78;25.71;100481.19;5155576;27;20067;-71
2022/03/11 10:59:32;;;;;;;10.07;7.65;;;;;;;17.30;26.06;100476.16;5155787;27;20070;-72
2022/03/11 11:02:26;;;;;;;12.30;8.88;;;;;;;17.78;24.50;100471.22;5155092;27;20035;-71
2022/03/11 11:04:51;;;;;;;11.77;8.65;;;;;;;18.03;24.60;100473.19;5155582;27;20118;-71
2022/03/11 11:07:17;;;;;;;10.35;7.85;;;;;;;18.20;24.17;100466.25;5155308;27;20113;-71
2022/03/11 11:09:43;;;;;;;11.30;7.97;;;;;;;17.96;24.13;100462.44;5155473;27;20037;-71
2022/03/11 11:12:11;;;;;;;9.48;7.70;;;;;;;18.17;24.03;100463.97;5155014;27;20051;-72
2022/03/11 11:14:36;;;;;;;10.20;7.90;;;;;;;18.51;23.65;100453.75;5155382;27;20038;-72
2022/03/11 11:17:04;;;;;;;12.73;7.97;;;;;;;18.31;24.28;100440.44;5155240;27;20049;-71
2022/03/11 11:19:32;;;;;;;11.38;8.00;;;;;;;18.61;23.85;100443.31;5155557;27;20429;-71
2022/03/11 11:21:59;;;;;;;11.10;8.63;;;;;;;18.52;24.35;100444.59;5154635;27;20095;-71
2022/03/11 11:24:25;;;;;;;11.07;8.27;;;;;;;18.55;24.71;100442.31;5155218;27;20035;-72
2022/03/11 11:26:55;;;;;;;8.50;7.57;;;;;;;18.61;23.89;100435.22;5155146;27;20062;-71
2022/03/11 11:29:25;;;;;;;13.35;8.18;;;;;;;18.82;23.65;100423.22;5119436;27;20165;-70
2022/03/11 11:31:51;;;;;;;11.45;7.95;;;;;;;18.46;23.72;100421.25;5145479;22;20045;-71
2022/03/11 11:34:25;;;;;;;13.65;8.50;;;;;;;19.00;23.72;100415.13;5093359;28;20506;-71
2022/03/11 11:36:51;;;;;;;11.02;7.90;;;;;;;18.86;24.18;100410.94;5093244;28;20063;-71
2022/03/11 11:39:17;;;;;;;12.02;7.95;;;;;;;18.56;23.85;100403.50;5093091;28;20044;-70
2022/03/11 11:41:52;;;;;;;10.10;7.63;;;;;;;19.36;23.34;100408.88;5074523;28;20113;-70
2022/03/11 11:44:18;;;;;;;9.63;8.30;;;;;;;19.70;22.86;100396.63;5093916;28;20550;-71
2022/03/11 11:47:11;;;;;;;10.07;7.30;;;;;;;20.05;22.40;100391.31;5093363;28;20147;-71
2022/03/11 11:49:47;;;;;;;9.32;7.47;;;;;;;19.66;22.33;100391.91;5092995;28;20036;-71
2022/03/11 11:52:25;;;;;;;11.10;7.55;;;;;;;19.85;22.21;100390.81;5092682;28;20078;-71
2022/03/11 11:54:50;;;;;;;11.30;7.72;;;;;;;18.95;22.92;100386.09;5092872;28;20114;-71
2022/03/11 11:57:21;;;;;;;10.45;8.25;;;;;;;19.49;22.67;100375.47;5092772;28;20153;-71
2022/03/11 11:59:47;;;;;;;9.20;8.07;;;;;;;19.18;23.32;100380.03;5092664;28;20032;-71
2022/03/11 12:02:25;;;;;;;9.25;7.07;;;;;;;18.07;25.61;100374.69;5092363;28;20186;-71
2022/03/11 12:04:51;;;;;;;;;;;;;;;19.34;23.30;100364.25;5092950;28;20122;-72
2022/03/11 12:07:17;;;;;;;10.00;7.60;;;;;;;20.71;21.56;100364.22;5092567;28;19953;-71
2022/03/11 12:10:00;;;;;;;10.48;8.05;;;;;;;20.23;21.78;100363.38;5092488;28;20062;-71
2022/03/11 12:12:34;;;;;;;9.43;7.20;;;;;;;21.08;21.05;100352.03;5073664;28;20043;-71
2022/03/11 12:15:00;;;;;;;9.55;7.78;;;;;;;20.42;20.91;100344.34;5092654;28;20028;-71
2022/03/11 12:17:41;;;;;;;10.00;7.25;;;;;;;19.95;21.92;100347.84;5093638;28;20031;-71
2022/03/11 12:20:34;;;;;;;9.05;7.13;;;;;;;19.79;21.90;100343.91;5092362;28;20093;-71
2022/03/11 12:23:04;;;;;;;9.65;6.88;;;;;;;18.36;23.48;100346.22;5092445;28;20032;-71
2022/03/11 12:25:34;;;;;;;9.57;7.28;;;;;;;18.93;23.66;100333.41;5092342;28;20036;-71
2022/03/11 12:28:10;;;;;;;11.63;8.13;;;;;;;18.65;23.81;100326.66;5073925;28;20047;-71
2022/03/11 12:30:47;;;;;;;10.85;7.40;;;;;;;19.88;21.84;100330.88;5091467;28;20036;-71
2022/03/11 12:33:15;;;;;;;;;;;;;;;20.18;22.75;100325.38;5092157;28;20036;-70
2022/03/11 12:35:41;;;;;;;;;;;;;;;19.62;22.18;100309.66;5092695;28;20534;-70
2022/03/11 12:38:15;;;;;;;8.80;6.90;;;;;;;19.56;22.30;100291.63;5073714;28;19912;-70
2022/03/11 12:40:42;;;;;;;8.05;6.85;;;;;;;19.79;21.66;100297.13;5091924;28;20036;-70
2022/03/11 12:43:11;;;;;;;9.18;6.88;;;;;;;19.64;21.80;100292.19;5091666;28;20502;-70
2022/03/11 12:45:51;;;;;;;9.55;6.78;;;;;;;20.20;21.71;100290.81;5093608;28;20032;-70
2022/03/11 12:48:19;;;;;;;9.13;6.65;;;;;;;20.85;20.42;100279.81;5093521;28;20043;-69
2022/03/11 12:50:46;;;;;;;9.80;6.60;;;;;;;20.98;20.07;100272.47;5091855;28;20085;-72
2022/03/11 12:53:13;;;;;;;9.38;7.38;;;;;;;21.07;20.73;100281.88;5091415;28;20052;-70
2022/03/11 12:55:45;;;;;;;15.00;6.50;;;;;;;21.21;20.10;100272.41;5091950;28;20060;-71
2022/03/11 12:58:38;;;;;;;7.50;6.35;;;;;;;22.11;19.23;100273.44;5092829;28;20032;-70
2022/03/11 13:01:07;;;;;;;9.10;6.18;;;;;;;21.35;19.75;100270.25;5088624;28;20044;-70
2022/03/11 13:03:38;;;;;;;9.63;7.00;;;;;;;21.48;19.79;100263.69;5072904;28;20511;-71
2022/03/11 13:06:06;;;;;;;8.88;6.85;;;;;;;18.75;22.23;100260.56;5091586;28;20118;-71
2022/03/11 13:08:32;;;;;;;;;;;;;;;19.37;21.86;100261.19;5073805;28;20040;-71
2022/03/11 13:11:00;;;;;;;10.85;6.90;;;;;;;20.23;21.25;100252.50;5091467;28;20399;-70
2022/03/11 13:13:26;;;;;;;12.65;7.05;;;;;;;19.18;22.11;100252.31;5091001;28;20032;-70
2022/03/11 13:15:55;;;;;;;12.45;9.10;;;;;;;20.05;21.63;100234.50;5073372;28;20374;-71
2022/03/11 13:18:29;;;;;;;10.85;7.45;;;;;;;19.12;22.37;100235.16;5091420;28;20054;-71
2022/03/11 13:20:56;;;;;;;8.32;6.70;;;;;;;20.29;21.08;100224.50;5091436;28;20119;-70
2022/03/11 13:23:23;;;;;;;6.82;6.13;;;;;;;20.28;20.82;100228.28;5091058;28;20127;-70
2022/03/11 13:26:04;;;;;;;10.93;7.03;;;;;;;21.28;19.88;100229.75;5091502;28;20051;-70
2022/03/11 13:28:45;;;;;;;8.15;6.43;;;;;;;21.50;19.66;100227.16;5091757;28;20039;-70
2022/03/11 13:31:20;;;;;;;9.23;6.70;;;;;;;21.37;19.15;100222.88;5091075;28;20410;-70
2022/03/11 13:33:48;;;;;;;9.40;6.10;;;;;;;20.79;20.08;100223.09;5073241;28;20093;-70
2022/03/11 13:36:15;;;;;;;11.18;7.00;;;;;;;20.78;19.64;100213.34;5091681;28;20032;-70
2022/03/11 13:38:57;;;;;;;8.55;6.32;;;;;;;20.65;20.60;100205.50;5091299;28;20526;-70
2022/03/11 13:41:56;;;;;;;8.75;6.03;;;;;;;20.76;20.11;100202.75;5091248;28;20119;-71
2022/03/11 13:44:30;;;;;;;8.68;6.43;;;;;;;21.47;19.28;100199.72;5080168;28;20140;-70
2022/03/11 13:47:04;;;;;;;8.10;6.43;;;;;;;20.84;19.93;100194.25;5095216;28;20084;-72
2022/03/11 13:50:04;;;;;;;11.00;7.28;;;;;;;21.06;19.86;100186.28;5095787;28;20032;-69
2022/03/11 13:52:40;;;;;;;8.00;5.97;;;;;;;21.19;19.85;100176.19;5094584;28;20028;-71
2022/03/11 13:55:10;;;;;;;8.30;6.47;;;;;;;21.12;19.99;100179.88;5095116;28;20040;-71
2022/03/11 13:57:41;;;;;;;10.15;6.97;;;;;;;19.39;21.43;100175.34;5094684;28;20036;-71
2022/03/11 14:00:24;;;;;;;9.43;6.60;;;;;;;19.45;21.18;100183.34;5094809;28;20040;-71
2022/03/11 14:02:50;;;;;;;10.75;7.18;;;;;;;19.01;22.05;100171.16;5094811;28;20375;-70
2022/03/11 14:05:23;;;;;;;8.73;6.85;;;;;;;19.05;22.11;100166.94;5094878;28;20040;-69
2022/03/11 14:07:57;;;;;;;9.52;6.70;;;;;;;19.04;22.33;100167.16;5094648;28;20059;-71
2022/03/11 14:10:27;;;;;;;12.40;7.40;;;;;;;18.46;22.71;100163.16;5095947;28;20047;-70
2022/03/11 14:13:01;;;;;;;10.00;7.10;;;;;;;17.94;23.17;100157.34;5094329;28;20043;-70
2022/03/11 14:15:35;;;;;;;9.73;7.40;;;;;;;17.88;23.34;100158.22;5094623;28;20050;-70
2022/03/11 14:18:00;;;;;;;9.95;6.90;;;;;;;17.66;23.71;100156.94;5094531;28;20055;-70
2022/03/11 14:20:26;;;;;;;11.35;6.95;;;;;;;17.24;24.44;100165.59;5076129;28;20044;-71
2022/03/11 14:22:52;;;;;;;10.07;7.10;;;;;;;17.12;24.99;100166.50;5094018;28;20477;-70
2022/03/11 14:25:17;;;;;;;10.18;6.80;;;;;;;17.34;23.93;100165.09;5094412;28;20028;-70
2022/03/11 14:27:43;;;;;;;9.55;7.03;;;;;;;17.14;24.58;100167.09;5094289;28;20075;-71
2022/03/11 14:30:09;;;;;;;9.60;6.70;;;;;;;17.09;24.61;100160.53;5094209;28;20035;-70
2022/03/11 14:32:35;;;;;;;11.18;7.38;;;;;;;16.54;25.16;100160.19;5093703;28;20024;-70
2022/03/11 14:35:02;;;;;;;9.80;7.43;;;;;;;16.50;25.68;100156.28;5076127;28;20139;-70
2022/03/11 14:37:27;;;;;;;11.57;6.72;;;;;;;16.72;25.12;100169.44;5094088;28;20036;-70
2022/03/11 14:39:53;;;;;;;9.52;6.57;;;;;;;16.28;25.59;100158.44;5094043;28;20389;-70
2022/03/11 14:42:19;;;;;;;8.70;6.63;;;;;;;16.23;25.68;100155.53;5093723;28;20028;-70
2022/03/11 14:44:45;;;;;;;12.52;7.30;;;;;;;16.07;25.99;100153.34;5094165;28;20028;-70
2022/03/11 14:47:13;;;;;;;10.80;7.07;;;;;;;15.86;26.28;100148.25;5094045;28;20043;-70
2022/03/11 14:49:43;;;;;;;;;;;;;;;15.83;26.39;100154.84;5094293;28;20445;-70
2022/03/11 14:52:08;;;;;;;10.05;6.70;;;;;;;15.83;26.25;100165.56;5093472;28;19962;-70
2022/03/11 14:54:34;;;;;;;12.38;6.47;;;;;;;15.70;26.62;100155.69;5093373;28;20044;-70
2022/03/11 14:57:00;;;;;;;10.18;6.43;;;;;;;15.57;26.85;100163.72;5093852;28;20064;-70
2022/03/11 14:59:28;;;;;;;8.77;6.25;;;;;;;15.40;26.99;100155.28;5093682;28;20038;-70
2022/03/11 15:01:54;;;;;;;11.48;6.38;;;;;;;15.48;26.87;100144.31;5093160;28;20401;-70
2022/03/11 15:04:21;;;;;;;7.70;6.28;;;;;;;15.26;27.16;100136.69;5075303;28;20035;-70
2022/03/11 15:06:47;;;;;;;8.55;6.25;;;;;;;15.32;27.23;100151.97;5093728;28;20035;-70
2022/03/11 15:09:13;;;;;;;9.20;6.82;;;;;;;15.27;27.33;100147.22;5093715;28;20040;-70
2022/03/11 15:11:39;;;;;;;8.27;5.90;;;;;;;15.37;27.17;100144.94;5093304;28;20028;-70
2022/03/11 15:14:05;;;;;;;10.88;6.88;;;;;;;15.14;27.21;100149.91;5093945;28;20558;-70
2022/03/11 15:16:31;;;;;;;10.50;7.13;;;;;;;15.23;27.20;100159.41;5093572;28;20082;-70
2022/03/11 15:18:57;;;;;;;9.38;6.85;;;;;;;15.17;27.30;100153.00;5093917;28;20161;-70
2022/03/11 15:21:23;;;;;;;11.73;7.07;;;;;;;15.06;27.20;100155.44;5096217;28;20036;-70
2022/03/11 15:23:48;;;;;;;10.05;6.32;;;;;;;15.14;27.18;100150.72;5093105;28;20047;-70
2022/03/11 15:26:14;;;;;;;10.80;6.93;;;;;;;15.10;27.28;100144.13;5093586;28;20051;-70
2022/03/11 15:28:40;;;;;;;9.30;5.97;;;;;;;14.84;28.17;100139.53;5093418;28;20035;-70
2022/03/11 15:31:05;;;;;;;10.55;6.57;;;;;;;14.89;27.56;100147.81;5093109;28;20047;-70
2022/03/11 15:33:31;;;;;;;10.40;6.25;;;;;;;14.85;27.85;100141.19;5092969;28;20040;-71
2022/03/11 15:35:57;;;;;;;9.73;6.65;;;;;;;14.92;27.57;100147.38;5093158;28;20032;-69
2022/03/11 15:38:22;;;;;;;9.75;6.20;;;;;;;14.77;27.45;100141.38;5093061;28;20127;-71
2022/03/11 15:40:48;;;;;;;9.68;6.60;;;;;;;14.82;27.70;100136.25;5075073;28;20056;-70
2022/03/11 15:43:14;;;;;;;9.35;6.13;;;;;;;14.77;27.45;100133.34;5074739;28;20032;-70
2022/03/11 15:45:41;;;;;;;8.63;6.10;;;;;;;14.72;27.80;100140.34;5074794;28;20115;-70
2022/03/11 15:48:08;;;;;;;9.85;7.10;;;;;;;14.66;28.14;100144.66;5093126;28;20442;-71
2022/03/11 15:50:35;;;;;;;9.30;6.40;;;;;;;14.55;28.32;100138.03;5092825;28;20052;-71
2022/03/11 15:53:02;;;;;;;10.50;6.53;;;;;;;14.60;28.12;100138.22;5092519;28;20032;-70
2022/03/11 15:55:29;;;;;;;11.65;6.07;;;;;;;14.57;27.98;100140.50;5092959;28;20055;-70
2022/03/11 15:57:55;;;;;;;8.70;6.40;;;;;;;14.50;28.36;100142.34;5093131;28;20081;-70
2022/03/11 16:00:22;;;;;;;10.70;6.30;;;;;;;14.44;28.27;100140.44;5093093;28;20028;-70
2022/03/11 16:02:49;;;;;;;9.48;6.10;;;;;;;14.31;28.88;100150.06;5074237;28;20096;-70
2022/03/11 16:05:16;;;;;;;8.10;6.00;;;;;;;14.36;28.73;100141.44;5073743;28;20032;-70
2022/03/11 16:07:42;;;;;;;10.02;6.68;;;;;;;14.40;28.55;100150.72;5092573;28;20173;-69
2022/03/11 16:10:14;;;;;;;9.43;6.57;;;;;;;14.37;28.91;100154.63;5092699;28;20060;-70
2022/03/11 16:12:41;;;;;;;8.43;6.70;;;;;;;14.28;28.71;100153.16;5074171;28;20029;-70
2022/03/11 16:15:10;;;;;;;9.20;6.40;;;;;;;14.29;28.95;100157.50;5074109;28;20052;-71
2022/03/11 16:17:35;;;;;;;9.30;6.30;;;;;;;14.30;28.67;100152.97;5074265;28;20067;-70
2022/03/11 16:20:03;;;;;;;10.38;7.03;;;;;;;14.08;29.33;100146.84;5092363;28;20558;-70
2022/03/11 16:22:29;;;;;;;8.88;6.38;;;;;;;14.23;28.98;100152.09;5092032;28;20020;-70
2022/03/11 16:24:55;;;;;;;10.60;6.15;;;;;;;14.22;29.01;100145.09;5092317;28;20096;-71
2022/03/11 16:27:21;;;;;;;9.98;6.78;;;;;;;14.15;29.42;100154.94;5074013;28;20036;-70
2022/03/11 16:29:49;;;;;;;9.27;6.72;;;;;;;14.07;29.29;100153.25;5092244;28;20116;-70
2022/03/11 16:32:15;;;;;;;11.43;7.32;;;;;;;14.05;29.73;100155.31;5074236;28;20039;-69
2022/03/11 16:34:41;;;;;;;9.82;6.63;;;;;;;13.98;29.91;100151.75;5092487;28;20040;-69
2022/03/11 16:37:08;;;;;;;8.80;6.28;;;;;;;14.03;29.71;100157.38;5092158;28;20471;-71
2022/03/11 16:39:34;;;;;;;12.02;6.43;;;;;;;13.95;29.85;100146.78;5092083;28;20036;-70
2022/03/11 16:42:04;;;;;;;14.60;6.57;;;;;;;13.89;30.40;100155.59;5091579;28;20516;-71
2022/03/11 16:44:30;;;;;;;11.75;6.10;;;;;;;13.63;30.66;100153.59;5091960;28;20028;-70
2022/03/11 16:46:56;;;;;;;10.32;6.75;;;;;;;13.76;30.34;100151.84;5091764;28;20043;-70
2022/03/11 16:49:22;;;;;;;8.80;6.88;;;;;;;13.80;30.32;100149.59;5091962;28;20417;-70
2022/03/11 16:51:48;;;;;;;10.88;6.65;;;;;;;13.71;30.40;100151.59;5091362;28;20036;-70
2022/03/11 16:54:15;;;;;;;10.15;6.47;;;;;;;13.70;30.36;100151.81;5087976;28;20048;-70
2022/03/11 16:56:41;;;;;;;8.82;6.05;;;;;;;13.60;30.67;100162.00;5073587;28;20040;-70
2022/03/11 16:59:09;;;;;;;9.30;6.53;;;;;;;13.58;30.79;100164.91;5091467;28;20031;-70